Time;durP1;ratioP1;P1;durP2;ratioP2;P2;SDS_P1;SDS_P2;PMS_P1;PMS_P2;Temp;Humidity;BMP_temperature;BMP_pressure;BME280_temperature;BME280_humidity;BME280_pressure;Samples;Min_cycle;Max_cycle;Signal;HPM_P1;HPM_P2
2022/04/23 00:01:42;;;;;;;18.05;12.85;;;;;;;13.09;52.65;99016.91;5092046;28;20480;-59
2022/04/23 00:04:10;;;;;;;18.52;12.77;;;;;;;13.11;52.51;99020.28;5090866;28;20074;-60
2022/04/23 00:06:37;;;;;;;15.63;12.52;;;;;;;13.12;52.46;99021.13;5090573;28;20059;-59
2022/04/23 00:09:04;;;;;;;17.08;12.95;;;;;;;13.13;52.58;99023.63;5090867;28;20056;-59
2022/04/23 00:11:32;;;;;;;16.15;12.57;;;;;;;13.15;52.67;99021.72;5090642;28;20051;-59
2022/04/23 00:13:59;;;;;;;16.15;12.45;;;;;;;13.17;52.75;99018.94;5091804;28;20454;-59
2022/04/23 00:16:26;;;;;;;18.08;13.52;;;;;;;13.20;52.80;99015.22;5091797;28;20528;-59
2022/04/23 00:18:52;;;;;;;15.93;13.20;;;;;;;13.22;52.82;99023.84;5091548;28;20048;-59
2022/04/23 00:21:19;;;;;;;14.93;13.20;;;;;;;13.23;52.88;99014.97;5091315;28;20462;-60
2022/04/23 00:23:47;;;;;;;16.77;13.77;;;;;;;13.25;52.77;99011.25;5091802;28;20105;-59
2022/04/23 00:26:14;;;;;;;16.00;12.95;;;;;;;13.26;52.89;99007.63;5091806;28;20075;-60
2022/04/23 00:28:41;;;;;;;16.75;13.13;;;;;;;13.26;52.81;98999.72;5090181;28;20510;-60
2022/04/23 00:31:08;;;;;;;17.27;13.45;;;;;;;13.27;53.08;99004.03;5091493;28;20056;-59
2022/04/23 00:33:37;;;;;;;15.70;13.52;;;;;;;13.28;52.78;98999.59;5091387;28;20094;-59
2022/04/23 00:36:05;;;;;;;16.38;12.90;;;;;;;13.27;52.60;98995.28;5090093;28;20055;-59
2022/04/23 00:38:33;;;;;;;16.23;13.00;;;;;;;13.25;52.80;98998.03;5091365;28;20090;-59
2022/04/23 00:41:00;;;;;;;15.35;12.75;;;;;;;13.24;52.86;98998.97;5090934;28;20059;-60
2022/04/23 00:43:33;;;;;;;17.00;13.23;;;;;;;13.21;53.65;98985.19;5090238;28;20051;-59
2022/04/23 00:46:01;;;;;;;15.77;13.10;;;;;;;13.22;52.88;99000.06;5090077;28;20122;-60
2022/04/23 00:48:29;;;;;;;17.10;13.00;;;;;;;13.20;52.86;98992.25;5088919;28;20067;-59
2022/04/23 00:50:58;;;;;;;15.63;13.02;;;;;;;13.19;53.05;99000.34;5089703;28;20063;-59
2022/04/23 00:53:25;;;;;;;15.85;12.57;;;;;;;13.18;52.97;98998.63;5090059;28;20044;-59
2022/04/23 00:55:52;;;;;;;16.77;13.20;;;;;;;13.17;52.99;99003.09;5090016;28;20094;-59
2022/04/23 00:58:20;;;;;;;17.23;12.98;;;;;;;13.15;53.22;99000.56;5091023;28;20412;-62
2022/04/23 01:00:47;;;;;;;15.60;12.55;;;;;;;13.15;53.00;98991.78;5089522;28;20055;-59
2022/04/23 01:03:14;;;;;;;17.20;12.50;;;;;;;13.13;53.14;98997.19;5089695;28;20055;-60
2022/04/23 01:05:46;;;;;;;15.98;12.30;;;;;;;13.11;54.08;98987.72;5091081;28;20421;-59
2022/04/23 01:08:15;;;;;;;16.70;12.27;;;;;;;13.12;52.93;98986.78;5090940;28;20048;-59
2022/04/23 01:10:43;;;;;;;15.27;12.55;;;;;;;13.09;53.04;98985.19;5089177;28;20059;-60
2022/04/23 01:13:14;;;;;;;15.10;12.02;;;;;;;13.05;53.66;98988.22;5089683;28;20139;-59
2022/04/23 01:16:05;;;;;;;17.52;12.60;;;;;;;13.00;53.80;98981.50;5089581;28;20055;-59
2022/04/23 01:18:34;;;;;;;13.50;11.55;;;;;;;13.01;53.11;98982.34;5090573;28;20052;-60
2022/04/23 01:21:05;;;;;;;14.77;11.73;;;;;;;12.97;53.13;98991.47;5089010;28;20045;-59
2022/04/23 01:23:32;;;;;;;16.38;11.70;;;;;;;12.94;53.10;98989.06;5090611;28;20059;-60
2022/04/23 01:25:59;;;;;;;13.70;12.05;;;;;;;12.90;53.17;98988.50;5090716;28;20044;-60
2022/04/23 01:28:27;;;;;;;12.85;11.05;;;;;;;12.86;53.23;98995.78;5090891;28;20055;-59
2022/04/23 01:30:58;;;;;;;13.32;11.32;;;;;;;12.82;53.61;98999.63;5090238;28;20052;-60
2022/04/23 01:33:25;;;;;;;13.43;12.02;;;;;;;12.80;53.46;99001.56;5089108;28;20540;-59
2022/04/23 01:35:52;;;;;;;14.15;11.50;;;;;;;12.77;53.32;99001.81;5090627;28;20052;-59
2022/04/23 01:38:18;;;;;;;14.18;11.60;;;;;;;12.71;53.62;98989.91;5090788;28;20052;-61
2022/04/23 01:40:46;;;;;;;13.48;11.35;;;;;;;12.69;53.58;98997.13;5090683;28;20052;-59
2022/04/23 01:43:13;;;;;;;13.07;11.45;;;;;;;12.66;53.50;98988.59;5090425;28;20502;-61
2022/04/23 01:45:39;;;;;;;14.75;11.27;;;;;;;12.62;53.53;98994.13;5090489;28;20051;-59
2022/04/23 01:48:06;;;;;;;13.52;11.48;;;;;;;12.59;53.71;98989.09;5090508;28;20044;-59
2022/04/23 01:50:34;;;;;;;14.70;11.88;;;;;;;12.56;53.67;99002.50;5090267;28;20082;-60
2022/04/23 01:53:02;;;;;;;13.75;11.73;;;;;;;12.53;53.97;99008.06;5090191;28;20463;-60
2022/04/23 01:55:30;;;;;;;13.57;11.35;;;;;;;12.49;53.85;99001.34;5089285;28;20044;-62
2022/04/23 01:57:57;;;;;;;13.98;11.05;;;;;;;12.45;53.99;98997.25;5090693;28;20496;-60
2022/04/23 02:00:23;;;;;;;13.95;11.05;;;;;;;12.43;53.98;98993.88;5092756;28;20048;-60
2022/04/23 02:02:50;;;;;;;13.52;11.20;;;;;;;12.41;54.32;98988.69;5093083;28;20052;-60
2022/04/23 02:05:17;;;;;;;14.43;10.82;;;;;;;12.38;54.22;98999.50;5094205;28;20135;-60
2022/04/23 02:07:44;;;;;;;14.20;10.52;;;;;;;12.38;54.38;98999.50;5094626;28;20051;-59
2022/04/23 02:10:13;;;;;;;14.10;10.65;;;;;;;12.37;54.59;99000.44;5092661;28;20512;-60
2022/04/23 02:12:40;;;;;;;12.07;10.13;;;;;;;12.36;54.48;98989.06;5092679;28;20488;-59
2022/04/23 02:15:09;;;;;;;11.45;10.15;;;;;;;12.37;54.56;98995.19;5094018;28;20056;-59
2022/04/23 02:17:37;;;;;;;12.18;9.77;;;;;;;12.37;54.39;98993.38;5092682;28;20093;-60
2022/04/23 02:20:05;;;;;;;11.05;9.77;;;;;;;12.37;54.40;98995.19;5093530;28;20081;-60
2022/04/23 02:22:31;;;;;;;10.75;9.18;;;;;;;12.36;54.33;98988.22;5092953;28;20039;-63
2022/04/23 02:24:58;;;;;;;12.00;9.68;;;;;;;12.36;54.39;98990.88;5094096;28;20056;-60
2022/04/23 02:27:25;;;;;;;10.02;8.70;;;;;;;12.37;54.44;98992.53;5092542;28;20447;-59
2022/04/23 02:29:52;;;;;;;11.93;9.05;;;;;;;12.35;54.25;98981.28;5093341;28;20055;-59
2022/04/23 02:32:20;;;;;;;11.63;9.32;;;;;;;12.34;54.39;98972.50;5075855;28;20052;-60
2022/04/23 02:34:46;;;;;;;11.85;9.20;;;;;;;12.34;54.32;98980.41;5093546;28;20054;-60
2022/04/23 02:37:13;;;;;;;10.85;9.10;;;;;;;12.33;54.25;98972.63;5093758;28;20089;-59
2022/04/23 02:39:40;;;;;;;10.73;8.95;;;;;;;12.30;54.32;98971.06;5093324;28;20058;-59
2022/04/23 02:42:09;;;;;;;10.38;8.32;;;;;;;12.28;54.37;98970.34;5093412;28;20558;-59
2022/04/23 02:44:35;;;;;;;18.60;8.88;;;;;;;12.27;54.50;98979.22;5092007;28;20048;-59
2022/04/23 02:47:04;;;;;;;10.93;8.23;;;;;;;12.27;54.41;98975.75;5093211;28;20086;-59
2022/04/23 02:49:31;;;;;;;10.18;8.55;;;;;;;12.25;54.46;98962.66;5091976;28;20044;-60
2022/04/23 02:51:57;;;;;;;9.48;7.97;;;;;;;12.24;54.39;98959.19;5093377;28;20454;-59
2022/04/23 02:54:24;;;;;;;9.65;8.23;;;;;;;12.23;54.51;98967.22;5093403;28;20118;-61
2022/04/23 02:56:50;;;;;;;10.73;8.18;;;;;;;12.22;54.36;98963.75;5093388;28;20385;-60
2022/04/23 02:59:17;;;;;;;9.05;7.63;;;;;;;12.22;54.37;98971.66;5093080;28;20105;-59
2022/04/23 03:01:43;;;;;;;9.68;7.93;;;;;;;12.21;54.39;98962.06;5093019;28;20589;-59
2022/04/23 03:04:10;;;;;;;8.63;6.82;;;;;;;12.21;54.33;98964.69;5093535;28;20056;-62
2022/04/23 03:06:37;;;;;;;8.27;6.90;;;;;;;12.21;54.30;98963.84;5093246;28;20135;-59
2022/04/23 03:09:04;;;;;;;8.65;7.75;;;;;;;12.21;54.50;98966.50;5093071;28;20081;-59
2022/04/23 03:11:30;;;;;;;8.15;7.25;;;;;;;12.19;54.46;98956.06;5091801;28;20439;-62
2022/04/23 03:14:00;;;;;;;9.70;7.97;;;;;;;12.20;54.65;98956.91;5092746;28;20381;-60
2022/04/23 03:16:27;;;;;;;7.72;6.93;;;;;;;12.20;54.57;98962.19;5091523;28;20052;-60
2022/04/23 03:18:54;;;;;;;11.48;7.50;;;;;;;12.21;54.52;98961.22;5092835;28;20143;-60
2022/04/23 03:21:20;;;;;;;10.27;8.23;;;;;;;12.22;54.63;98965.53;5091191;28;20052;-60
2022/04/23 03:23:47;;;;;;;8.05;7.18;;;;;;;12.22;54.59;98971.66;5092681;28;20048;-60
2022/04/23 03:26:13;;;;;;;8.05;7.15;;;;;;;12.22;54.46;98963.75;5092652;28;20048;-59
2022/04/23 03:28:41;;;;;;;7.82;7.03;;;;;;;12.23;54.42;98962.78;5092919;28;20101;-59
2022/04/23 03:31:11;;;;;;;7.68;6.82;;;;;;;12.24;54.42;98963.63;5092916;28;20048;-59
2022/04/23 03:33:38;;;;;;;8.10;7.30;;;;;;;12.24;54.33;98963.63;5091688;28;20060;-59
2022/04/23 03:36:05;;;;;;;9.02;7.35;;;;;;;12.24;54.40;98958.34;5092504;28;20097;-58
2022/04/23 03:38:31;;;;;;;8.80;7.47;;;;;;;12.24;54.31;98963.63;5092495;28;20097;-60
2022/04/23 03:40:58;;;;;;;9.05;7.32;;;;;;;12.23;54.31;98962.78;5092184;28;20480;-59
2022/04/23 03:43:25;;;;;;;8.60;7.78;;;;;;;12.23;54.35;98961.94;5092320;28;20105;-60
2022/04/23 03:45:55;;;;;;;9.18;7.40;;;;;;;12.21;55.01;98963.84;5092261;28;20489;-60
2022/04/23 03:48:22;;;;;;;9.25;7.45;;;;;;;12.22;54.49;98961.09;5092437;28;20048;-60
2022/04/23 03:50:49;;;;;;;7.63;6.72;;;;;;;12.23;54.56;98961.94;5091916;28;20052;-59
2022/04/23 03:53:16;;;;;;;8.40;7.20;;;;;;;12.23;54.37;98965.41;5092148;28;20052;-63
2022/04/23 03:55:42;;;;;;;7.85;7.03;;;;;;;12.24;54.70;98961.00;5091046;28;20059;-59
2022/04/23 03:58:09;;;;;;;8.93;7.47;;;;;;;12.24;54.57;98966.25;5091992;28;20056;-58
2022/04/23 04:00:35;;;;;;;8.88;7.25;;;;;;;12.23;54.59;98957.50;5091817;28;20113;-64
2022/04/23 04:03:02;;;;;;;8.25;7.28;;;;;;;12.25;54.65;98960.03;5092063;28;20101;-60
2022/04/23 04:05:29;;;;;;;8.75;7.80;;;;;;;12.26;54.73;98961.69;5091894;28;20052;-59
2022/04/23 04:07:56;;;;;;;7.78;6.97;;;;;;;12.27;54.81;98957.28;5091917;28;20078;-61
2022/04/23 04:10:23;;;;;;;8.90;7.60;;;;;;;12.25;54.78;98958.22;5091405;28;20048;-59
2022/04/23 04:12:54;;;;;;;8.15;7.28;;;;;;;12.28;54.67;98958.94;5090497;28;20052;-60
2022/04/23 04:15:21;;;;;;;7.57;6.78;;;;;;;12.28;54.82;98954.50;5090065;28;20055;-59
2022/04/23 04:17:53;;;;;;;8.80;7.15;;;;;;;12.29;55.02;98955.38;5091591;28;20500;-61
2022/04/23 04:20:21;;;;;;;12.50;7.40;;;;;;;12.31;54.68;98949.00;5091287;28;20048;-60
2022/04/23 04:22:49;;;;;;;8.35;7.10;;;;;;;12.32;54.86;98950.69;5089782;28;20531;-62
2022/04/23 04:25:17;;;;;;;8.43;7.32;;;;;;;12.35;54.76;98961.00;5090518;28;20541;-62
2022/04/23 04:27:44;;;;;;;9.82;7.22;;;;;;;12.36;54.69;98954.75;5090376;28;20603;-58
2022/04/23 04:30:11;;;;;;;10.57;7.45;;;;;;;12.37;54.82;98960.88;5091465;28;20098;-59
2022/04/23 04:32:41;;;;;;;9.30;7.43;;;;;;;12.40;54.70;98958.00;5091299;28;20056;-59
2022/04/23 04:35:09;;;;;;;9.13;7.10;;;;;;;12.41;54.67;98950.94;5091427;28;20084;-58
2022/04/23 04:37:36;;;;;;;9.30;7.85;;;;;;;12.45;54.55;98952.38;5091063;28;20050;-58
2022/04/23 04:40:05;;;;;;;8.75;7.35;;;;;;;12.44;54.66;98954.16;5089734;28;20059;-60
2022/04/23 04:42:31;;;;;;;10.45;7.78;;;;;;;12.45;54.38;98955.00;5090006;28;20047;-60
2022/04/23 04:44:59;;;;;;;8.00;6.82;;;;;;;12.46;54.33;98957.53;5091460;28;20054;-59
2022/04/23 04:47:26;;;;;;;11.07;7.53;;;;;;;12.46;54.15;98962.81;5090970;28;20056;-58
2022/04/23 04:49:54;;;;;;;7.63;6.65;;;;;;;12.44;54.21;98963.88;5090926;28;20462;-60
2022/04/23 04:52:21;;;;;;;8.82;7.18;;;;;;;12.42;54.16;98960.53;5091051;28;20164;-61
2022/04/23 04:54:54;;;;;;;7.50;6.65;;;;;;;12.40;54.04;98967.72;5091353;28;20062;-59
2022/04/23 04:57:21;;;;;;;7.93;7.03;;;;;;;12.36;54.13;98978.53;5091097;28;20053;-59
2022/04/23 04:59:48;;;;;;;8.55;7.10;;;;;;;12.33;53.97;98975.25;5090858;28;20083;-59
2022/04/23 05:02:14;;;;;;;7.75;6.38;;;;;;;12.30;54.02;98978.97;5090946;28;20120;-59
2022/04/23 05:04:41;;;;;;;10.93;6.88;;;;;;;12.27;53.89;98979.22;5090844;28;20055;-60
2022/04/23 05:07:07;;;;;;;8.68;6.55;;;;;;;12.23;53.97;98975.16;5091057;28;20051;-60
2022/04/23 05:09:34;;;;;;;7.65;6.60;;;;;;;12.22;53.98;98987.50;5090631;28;20047;-59
2022/04/23 05:12:00;;;;;;;8.13;6.55;;;;;;;12.18;54.03;98982.59;5090760;28;20082;-58
2022/04/23 05:14:27;;;;;;;7.68;5.95;;;;;;;12.12;54.03;98982.06;5090628;28;20129;-62
2022/04/23 05:16:54;;;;;;;7.35;6.15;;;;;;;12.09;53.97;98982.31;5090479;28;20526;-59
2022/04/23 05:19:20;;;;;;;10.23;6.68;;;;;;;12.05;54.09;98986.16;5088343;28;20055;-60
2022/04/23 05:21:47;;;;;;;8.70;6.80;;;;;;;12.02;54.09;98983.69;5090609;28;20044;-59
2022/04/23 05:24:13;;;;;;;7.65;5.95;;;;;;;12.00;54.19;98982.97;5090649;28;20544;-61
2022/04/23 05:26:40;;;;;;;7.90;5.90;;;;;;;11.98;54.31;98980.47;5090683;28;20040;-58
2022/04/23 05:29:06;;;;;;;6.68;5.78;;;;;;;11.97;54.14;98986.66;5090716;28;20530;-62
2022/04/23 05:31:33;;;;;;;7.28;6.50;;;;;;;11.97;54.44;98991.94;5090446;28;20059;-58
2022/04/23 05:34:00;;;;;;;8.43;6.07;;;;;;;11.98;54.42;98995.44;5094368;28;20044;-59
2022/04/23 05:36:26;;;;;;;10.63;6.15;;;;;;;11.98;54.28;98996.28;5097441;28;20064;-60
2022/04/23 05:38:54;;;;;;;11.85;6.78;;;;;;;11.98;54.40;98996.28;5097309;28;20097;-59
2022/04/23 05:41:21;;;;;;;8.23;6.32;;;;;;;11.98;54.25;98996.28;5095610;28;20052;-58
2022/04/23 05:43:47;;;;;;;7.47;6.40;;;;;;;11.99;54.29;99002.38;5095977;28;20078;-59
2022/04/23 05:46:16;;;;;;;7.63;5.70;;;;;;;11.99;54.34;99003.25;5097184;28;20518;-59
2022/04/23 05:48:43;;;;;;;7.95;6.03;;;;;;;12.00;54.37;98998.78;5095807;28;20044;-59
2022/04/23 05:51:10;;;;;;;8.38;6.22;;;;;;;12.01;54.23;99004.91;5096869;28;20055;-61
2022/04/23 05:53:37;;;;;;;7.72;5.80;;;;;;;12.02;54.33;99006.59;5097270;28;20056;-60
2022/04/23 05:56:03;;;;;;;6.85;6.00;;;;;;;12.02;54.23;99010.06;5097202;28;20052;-58
2022/04/23 05:58:30;;;;;;;8.63;5.90;;;;;;;12.03;54.15;99006.47;5097317;28;20066;-62
2022/04/23 06:00:57;;;;;;;7.25;6.28;;;;;;;12.04;54.10;99012.59;5096677;28;20101;-58
2022/04/23 06:03:23;;;;;;;9.55;6.50;;;;;;;12.03;53.98;99009.13;5097413;28;20135;-58
2022/04/23 06:05:50;;;;;;;7.32;6.22;;;;;;;12.04;54.15;99009.97;5097205;28;20048;-59
2022/04/23 06:08:17;;;;;;;7.00;6.30;;;;;;;12.05;53.98;99009.00;5097135;28;20052;-59
2022/04/23 06:10:43;;;;;;;8.00;6.60;;;;;;;12.06;53.92;99022.09;5096586;28;20052;-60
2022/04/23 06:13:10;;;;;;;7.13;6.43;;;;;;;12.06;53.81;99022.09;5096885;28;20056;-59
2022/04/23 06:15:37;;;;;;;7.32;5.78;;;;;;;12.08;53.79;99025.47;5097014;28;20447;-59
2022/04/23 06:18:04;;;;;;;7.10;5.85;;;;;;;12.09;53.54;99021.88;5095704;28;20067;-58
2022/04/23 06:20:31;;;;;;;7.72;6.40;;;;;;;12.11;53.93;99027.88;5096379;28;20777;-61
2022/04/23 06:22:57;;;;;;;6.88;6.15;;;;;;;12.15;53.77;99022.38;5097087;28;20127;-59
2022/04/23 06:25:24;;;;;;;7.05;6.28;;;;;;;12.17;53.59;99016.03;5096783;28;20062;-59
2022/04/23 06:27:50;;;;;;;6.72;6.03;;;;;;;12.19;53.53;99027.28;5096704;28;20043;-58
2022/04/23 06:30:17;;;;;;;7.30;6.57;;;;;;;12.22;53.47;99023.56;5096374;28;20055;-59
2022/04/23 06:32:44;;;;;;;11.32;6.72;;;;;;;12.24;53.28;99019.03;5096851;28;20048;-59
2022/04/23 06:35:11;;;;;;;7.18;6.45;;;;;;;12.26;53.43;99019.75;5097124;28;20504;-60
2022/04/23 06:37:39;;;;;;;8.85;7.13;;;;;;;12.28;53.64;99023.13;5096638;28;20056;-59
2022/04/23 06:40:13;;;;;;;9.35;6.82;;;;;;;12.32;53.31;99021.94;5095222;28;20048;-59
2022/04/23 06:42:40;;;;;;;8.60;6.93;;;;;;;12.35;53.44;99027.00;5095357;28;20048;-59
2022/04/23 06:45:08;;;;;;;10.48;7.78;;;;;;;12.41;53.21;99022.19;5095504;28;20471;-61
2022/04/23 06:47:34;;;;;;;11.88;7.40;;;;;;;12.44;53.30;99035.97;5093441;28;20048;-59
2022/04/23 06:50:01;;;;;;;8.73;6.97;;;;;;;12.47;53.16;99025.19;5093336;28;20113;-58
2022/04/23 06:52:28;;;;;;;17.05;7.97;;;;;;;12.50;53.06;99026.75;5093362;28;20060;-61
2022/04/23 06:54:58;;;;;;;8.38;7.47;;;;;;;12.51;53.17;99029.28;5093167;28;20051;-58
2022/04/23 06:57:24;;;;;;;9.52;7.95;;;;;;;12.56;53.08;99030.72;5092106;28;20551;-58
2022/04/23 06:59:52;;;;;;;8.90;7.70;;;;;;;12.59;53.38;99041.88;5093043;28;20101;-58
2022/04/23 07:02:19;;;;;;;10.40;7.70;;;;;;;12.62;53.19;99032.88;5092034;28;20052;-59
2022/04/23 07:04:47;;;;;;;10.60;7.82;;;;;;;12.65;53.35;99024.72;5092152;28;20052;-60
2022/04/23 07:07:13;;;;;;;9.68;8.10;;;;;;;12.70;53.15;99025.22;5093180;28;20086;-58
2022/04/23 07:09:40;;;;;;;9.18;8.18;;;;;;;12.76;53.08;99035.28;5092521;28;20048;-60
2022/04/23 07:12:07;;;;;;;10.57;8.30;;;;;;;12.81;53.01;99029.66;5092967;28;20052;-59
2022/04/23 07:14:34;;;;;;;9.85;8.57;;;;;;;12.87;53.23;99030.97;5093044;28;20855;-58
2022/04/23 07:17:06;;;;;;;10.23;8.38;;;;;;;12.94;53.02;99034.84;5092908;28;20691;-59
2022/04/23 07:19:36;;;;;;;10.32;8.40;;;;;;;13.02;53.11;99035.03;5092620;28;20052;-58
2022/04/23 07:22:04;;;;;;;12.15;8.65;;;;;;;13.11;52.91;99030.84;5092559;28;20098;-56
2022/04/23 07:24:30;;;;;;;11.18;8.45;;;;;;;13.20;52.88;99025.78;5092608;28;20078;-58
2022/04/23 07:26:59;;;;;;;14.30;8.85;;;;;;;13.28;52.88;99031.31;5092651;28;20052;-59
2022/04/23 07:29:25;;;;;;;9.48;8.48;;;;;;;13.37;52.87;99022.63;5092433;28;20059;-59
2022/04/23 07:31:52;;;;;;;11.60;8.90;;;;;;;13.46;52.53;99023.66;5092531;28;20101;-58
2022/04/23 07:39:50;;;;;;;9.10;7.55;;;;;;;13.78;52.07;99027.34;5092224;28;20493;-58
2022/04/23 07:42:16;;;;;;;8.90;7.97;;;;;;;13.88;51.99;99028.28;5092185;28;20138;-61
2022/04/23 07:44:43;;;;;;;14.32;8.30;;;;;;;13.99;51.69;99022.09;5092226;28;20451;-61
2022/04/23 07:47:16;;;;;;;10.35;8.02;;;;;;;14.10;51.71;99023.84;5092215;28;20078;-60
2022/04/23 07:49:43;;;;;;;10.63;8.65;;;;;;;14.16;51.48;99020.66;5092134;28;20044;-59
2022/04/23 07:52:09;;;;;;;15.68;8.60;;;;;;;14.25;51.04;99018.22;5092135;28;20059;-59
2022/04/23 07:54:39;;;;;;;13.88;8.80;;;;;;;14.31;51.01;99028.25;5092123;28;20101;-59
2022/04/23 07:57:09;;;;;;;10.00;8.70;;;;;;;14.39;50.96;99025.00;5090225;28;20056;-59
2022/04/23 07:59:41;;;;;;;10.23;8.15;;;;;;;14.43;50.58;99027.22;5090561;28;20060;-59
2022/04/23 08:02:09;;;;;;;8.93;7.82;;;;;;;14.52;50.63;99024.78;5091690;28;20105;-59
2022/04/23 08:04:36;;;;;;;9.00;7.95;;;;;;;14.57;50.41;99028.72;5091962;28;20048;-59
2022/04/23 08:07:03;;;;;;;10.25;8.32;;;;;;;14.62;50.24;99023.03;5091970;28;20052;-59
2022/04/23 08:09:29;;;;;;;10.63;8.18;;;;;;;14.67;50.15;99028.75;5091419;28;20490;-60
2022/04/23 08:11:56;;;;;;;9.32;8.00;;;;;;;14.69;49.75;99029.47;5091703;28;20504;-59
2022/04/23 08:14:23;;;;;;;8.85;7.65;;;;;;;14.75;49.83;99024.59;5091800;28;20052;-60
2022/04/23 08:16:50;;;;;;;9.40;7.97;;;;;;;14.78;49.89;99024.38;5092104;28;20059;-61
2022/04/23 08:19:17;;;;;;;8.77;7.70;;;;;;;14.81;49.47;99014.34;5091433;28;20043;-59
2022/04/23 08:21:44;;;;;;;9.57;8.35;;;;;;;14.85;49.29;99009.63;5090161;28;20048;-59
2022/04/23 08:24:10;;;;;;;10.55;7.93;;;;;;;14.88;49.30;99014.63;5091722;28;20078;-61
2022/04/23 08:26:37;;;;;;;10.85;7.88;;;;;;;14.93;49.43;99017.75;5091434;28;20048;-58
2022/04/23 08:31:49;;;;;;;13.90;7.57;;;;;;;15.07;49.02;99016.50;5091646;28;20133;-59
2022/04/23 08:34:16;;;;;;;9.13;8.10;;;;;;;15.15;49.18;99010.56;5091449;28;20420;-60
2022/04/23 08:36:43;;;;;;;9.85;7.88;;;;;;;15.22;49.20;99011.66;5091337;28;20101;-60
2022/04/23 08:39:09;;;;;;;8.93;7.90;;;;;;;15.31;49.22;99014.47;5089593;28;20071;-59
2022/04/23 08:41:36;;;;;;;11.23;7.85;;;;;;;15.41;48.94;99006.56;5091097;28;20052;-62
2022/04/23 08:44:07;;;;;;;8.60;7.57;;;;;;;15.50;49.08;99014.53;5091414;28;20091;-59
2022/04/23 08:46:38;;;;;;;9.60;8.13;;;;;;;15.58;48.50;99007.66;5091642;28;20278;-59
2022/04/23 08:49:09;;;;;;;8.57;7.57;;;;;;;15.67;48.52;99014.81;5091245;28;20052;-59
2022/04/23 08:51:38;;;;;;;9.55;8.23;;;;;;;15.79;48.94;99010.22;5089928;28;20044;-61
2022/04/23 08:54:10;;;;;;;10.02;8.43;;;;;;;15.89;48.36;99018.19;5090156;28;20105;-58
2022/04/23 08:56:41;;;;;;;19.33;8.15;;;;;;;16.00;47.96;99009.25;5090993;28;20044;-59
2022/04/23 08:59:11;;;;;;;9.35;8.07;;;;;;;16.10;47.73;99014.53;5091039;28;20044;-58
2022/04/23 09:01:44;;;;;;;11.30;8.25;;;;;;;16.19;47.74;99007.56;5089800;28;20563;-59
2022/04/23 09:04:12;;;;;;;11.93;8.65;;;;;;;16.25;47.40;99004.31;5089755;28;20083;-58
2022/04/23 09:06:48;;;;;;;10.50;8.55;;;;;;;16.27;47.37;98997.88;5091044;28;20054;-60
2022/04/23 09:09:20;;;;;;;16.35;8.48;;;;;;;16.37;47.53;99005.81;5089910;28;20515;-59
2022/04/23 09:11:52;;;;;;;10.07;8.63;;;;;;;16.45;47.04;99001.63;5089820;28;20043;-60
2022/04/23 09:14:29;;;;;;;10.43;8.20;;;;;;;16.51;47.04;99001.88;5091120;28;20451;-59
2022/04/23 09:25:31;;;;;;;8.98;7.78;;;;;;;16.75;46.29;98991.72;5091172;28;20040;-59
2022/04/23 09:28:14;;;;;;;10.73;8.07;;;;;;;16.82;46.68;98989.31;5089601;28;20059;-58
2022/04/23 09:30:41;;;;;;;13.18;7.82;;;;;;;16.92;46.38;98998.06;5089692;28;20048;-60
2022/04/23 09:33:08;;;;;;;9.52;7.97;;;;;;;16.99;46.16;98993.00;5089350;28;20070;-59
2022/04/23 09:35:35;;;;;;;9.90;8.52;;;;;;;17.04;46.36;99001.38;5090520;28;20056;-61
2022/04/23 09:38:28;;;;;;;8.93;7.95;;;;;;;17.09;46.29;98990.31;5090757;28;20100;-59
2022/04/23 09:40:57;;;;;;;9.35;7.70;;;;;;;17.23;46.08;98995.13;5089366;28;20059;-60
2022/04/23 09:43:25;;;;;;;8.82;7.93;;;;;;;17.32;45.83;98999.53;5090587;28;20040;-60
2022/04/23 09:46:00;;;;;;;10.02;8.57;;;;;;;17.41;45.84;98996.97;5089441;28;20105;-58
2022/04/23 09:48:37;;;;;;;10.35;8.00;;;;;;;17.53;45.35;98995.78;5089859;28;20066;-61
2022/04/23 09:51:04;;;;;;;9.25;8.25;;;;;;;17.61;45.22;98989.72;5090376;28;20047;-61
2022/04/23 09:53:30;;;;;;;9.63;8.27;;;;;;;17.71;45.07;98989.59;5089391;28;20052;-59
2022/04/23 09:56:05;;;;;;;9.55;7.85;;;;;;;17.79;44.74;98995.00;5090527;28;20480;-58
2022/04/23 09:58:33;;;;;;;8.77;7.88;;;;;;;17.90;44.42;98995.78;5090622;28;20054;-62
2022/04/23 10:01:00;;;;;;;13.02;7.85;;;;;;;17.96;44.31;98995.16;5089272;28;20044;-59
2022/04/23 10:03:29;;;;;;;10.15;7.50;;;;;;;18.02;43.96;98991.84;5089182;28;20492;-59
2022/04/23 10:05:57;;;;;;;12.02;8.45;;;;;;;18.08;44.18;98990.44;5089270;28;20067;-59
2022/04/23 10:08:30;;;;;;;8.52;7.45;;;;;;;18.14;44.10;98984.50;5089062;28;20052;-60
2022/04/23 10:11:06;;;;;;;9.05;7.97;;;;;;;18.24;43.75;98992.38;5090109;28;20446;-59
2022/04/23 10:13:34;;;;;;;12.38;8.55;;;;;;;18.35;43.90;98991.28;5089121;28;20492;-59
2022/04/23 10:16:03;;;;;;;9.40;7.25;;;;;;;18.42;43.26;98988.81;5089036;28;20573;-60
2022/04/23 10:18:31;;;;;;;8.73;7.45;;;;;;;18.51;43.02;98993.22;5089032;28;20059;-61
2022/04/23 10:21:00;;;;;;;10.13;7.82;;;;;;;18.56;42.91;98990.06;5093158;28;20438;-60
2022/04/23 10:23:50;;;;;;;9.05;7.80;;;;;;;18.57;43.36;98986.41;5093887;28;20044;-61
2022/04/23 10:26:43;;;;;;;8.93;7.45;;;;;;;18.66;43.51;98982.81;5093180;28;20055;-62
2022/04/23 10:29:14;;;;;;;8.55;7.45;;;;;;;18.79;43.21;98979.69;5093757;28;20048;-62
2022/04/23 10:31:42;;;;;;;9.90;8.10;;;;;;;18.89;42.98;98975.03;5094008;28;20048;-59
2022/04/23 10:34:33;;;;;;;9.43;7.90;;;;;;;18.93;42.79;98972.91;5092678;28;20105;-60
2022/04/23 10:37:20;;;;;;;8.75;7.68;;;;;;;19.00;42.32;98986.44;5094001;28;20052;-59
2022/04/23 10:40:12;;;;;;;11.95;8.40;;;;;;;19.07;41.76;98976.81;5093757;28;20051;-59
2022/04/23 10:42:39;;;;;;;9.32;8.30;;;;;;;19.16;41.55;98976.81;5093968;28;20051;-61
2022/04/23 10:45:07;;;;;;;9.65;8.07;;;;;;;19.19;41.05;98977.34;5093644;28;20048;-58
2022/04/23 10:47:35;;;;;;;8.18;7.35;;;;;;;19.23;41.02;98975.19;5093873;28;20056;-60
2022/04/23 10:50:23;;;;;;;7.97;6.70;;;;;;;19.28;41.32;98978.19;5093311;28;20052;-59
2022/04/23 10:52:53;;;;;;;8.18;6.90;;;;;;;19.45;42.35;98967.56;5093895;28;20109;-59
2022/04/23 10:55:23;;;;;;;7.55;6.82;;;;;;;19.63;42.37;98965.56;5092484;28;20102;-59
2022/04/23 10:57:54;;;;;;;9.77;7.22;;;;;;;19.93;42.79;98976.56;5093535;28;20564;-59
2022/04/23 11:00:23;;;;;;;8.20;6.85;;;;;;;20.34;43.26;98976.72;5093113;28;20058;-59
2022/04/23 11:03:10;;;;;;;7.50;6.68;;;;;;;20.87;41.90;98965.50;5091889;28;20052;-59
2022/04/23 11:13:58;;;;;;;7.68;5.38;;;;;;;23.11;38.35;98968.94;5092833;28;20070;-61
2022/04/23 11:16:28;;;;;;;6.93;5.65;;;;;;;23.39;37.04;98972.75;5093169;28;20440;-60
2022/04/23 11:18:58;;;;;;;6.13;5.63;;;;;;;23.63;36.68;98968.03;5091589;28;20059;-60
2022/04/23 11:21:32;;;;;;;6.25;5.65;;;;;;;23.78;35.56;98959.91;5092491;28;20481;-63
2022/04/23 11:24:01;;;;;;;7.35;5.82;;;;;;;23.98;35.87;98968.13;5092758;28;20068;-62
2022/04/23 11:26:45;;;;;;;6.80;5.32;;;;;;;24.17;36.54;98965.78;5092869;28;20056;-59
2022/04/23 11:29:13;;;;;;;6.18;5.50;;;;;;;24.47;35.08;98960.19;5091274;28;20467;-60
2022/04/23 11:31:40;;;;;;;6.13;5.53;;;;;;;24.71;34.86;98955.38;5090603;28;20450;-59
2022/04/23 11:34:07;;;;;;;9.68;5.13;;;;;;;24.96;34.80;98960.22;5092465;28;20093;-62
2022/04/23 11:36:36;;;;;;;6.22;5.63;;;;;;;25.19;33.93;98942.94;5092565;28;20056;-59
2022/04/23 11:39:10;;;;;;;6.85;5.07;;;;;;;25.43;33.15;98946.91;5092672;28;20052;-60
2022/04/23 11:41:48;;;;;;;7.22;5.50;;;;;;;25.69;32.02;98945.28;5092752;28;20044;-59
2022/04/23 11:44:15;;;;;;;6.85;5.55;;;;;;;25.97;32.65;98946.09;5092230;28;20594;-59
2022/04/23 11:46:51;;;;;;;5.78;4.72;;;;;;;26.12;30.99;98953.97;5092210;28;20492;-60
2022/04/23 11:49:31;;;;;;;5.70;5.20;;;;;;;26.23;31.58;98939.84;5092332;28;20052;-62
2022/04/23 11:52:06;;;;;;;6.47;4.88;;;;;;;26.36;30.55;98941.72;5092069;28;20048;-61
2022/04/23 11:54:43;;;;;;;6.65;5.05;;;;;;;26.44;31.10;98945.22;5091853;28;20048;-60
2022/04/23 11:57:12;;;;;;;6.35;5.38;;;;;;;26.56;30.90;98939.97;5091040;28;20048;-60
2022/04/23 11:59:39;;;;;;;7.32;5.07;;;;;;;26.69;31.82;98942.66;5091050;28;20056;-59
2022/04/23 12:02:27;;;;;;;5.40;4.90;;;;;;;26.86;31.95;98939.44;5092418;28;20500;-59